Time;durP1;ratioP1;P1;durP2;ratioP2;P2;SDS_P1;SDS_P2;PMS_P1;PMS_P2;Temp;Humidity;BMP_temperature;BMP_pressure;BME280_temperature;BME280_humidity;BME280_pressure;Samples;Min_cycle;Max_cycle;Signal;HPM_P1;HPM_P2
2023/03/27 00:00:15;;;;;;;2.60;1.92;;;;;;;;;;10299411;28;20084;-65
2023/03/27 00:05:15;;;;;;;2.10;1.90;;;;;;;;;;10296345;28;20079;-65
2023/03/27 00:10:13;;;;;;;2.53;1.83;;;;;;;;;;10294020;28;20068;-64
2023/03/27 00:15:15;;;;;;;3.08;1.70;;;;;;;;;;10294042;28;20064;-64
2023/03/27 00:20:16;;;;;;;1.85;1.75;;;;;;;;;;10293675;28;20102;-65
2023/03/27 00:25:15;;;;;;;1.70;1.60;;;;;;;;;;10295523;28;20170;-65
2023/03/27 00:30:14;;;;;;;2.00;1.80;;;;;;;;;;10295591;28;20103;-65
2023/03/27 00:35:13;;;;;;;1.70;1.60;;;;;;;;;;10293062;28;20111;-65
2023/03/27 00:40:16;;;;;;;1.67;1.58;;;;;;;;;;10294836;28;20076;-66
2023/03/27 00:45:15;;;;;;;2.67;1.63;;;;;;;;;;10287903;28;20084;-65
2023/03/27 00:50:17;;;;;;;2.60;1.70;;;;;;;;;;10291228;28;20068;-64
2023/03/27 00:55:18;;;;;;;1.40;1.30;;;;;;;;;;10302137;28;20513;-65
2023/03/27 01:00:18;;;;;;;1.60;1.42;;;;;;;;;;10294399;28;20056;-64
2023/03/27 01:05:18;;;;;;;2.42;2.22;;;;;;;;;;10296731;28;20072;-64
2023/03/27 01:10:20;;;;;;;1.92;1.73;;;;;;;;;;10289422;28;20477;-65
2023/03/27 01:15:25;;;;;;;1.48;1.38;;;;;;;;;;10293436;28;20077;-65
2023/03/27 01:20:23;;;;;;;;;;;;;;;;;;10301178;28;20072;-64
2023/03/27 01:25:51;;;;;;;7.38;5.18;;;;;;;;;;10299236;28;19920;-65
2023/03/27 01:30:54;;;;;;;3.15;1.40;;;;;;;;;;10289811;28;20079;-65
2023/03/27 01:36:16;;;;;;;1.50;1.40;;;;;;;;;;10290511;28;20183;-64
2023/03/27 01:41:21;;;;;;;2.70;1.45;;;;;;;;;;10303657;28;20083;-65
2023/03/27 01:46:21;;;;;;;1.88;1.40;;;;;;;;;;10293287;28;20052;-64
2023/03/27 01:51:22;;;;;;;1.42;1.33;;;;;;;;;;10285268;28;20091;-65
2023/03/27 01:56:25;;;;;;;1.65;1.55;;;;;;;;;;10287383;28;20060;-64
2023/03/27 02:01:28;;;;;;;1.83;1.42;;;;;;;;;;10286702;28;20080;-63
2023/03/27 02:06:28;;;;;;;2.10;1.35;;;;;;;;;;10285818;28;20083;-65
2023/03/27 02:11:30;;;;;;;1.77;1.58;;;;;;;;;;10290421;28;20521;-65
2023/03/27 02:16:32;;;;;;;1.50;1.40;;;;;;;;;;10291143;28;20072;-63
2023/03/27 02:21:31;;;;;;;1.15;1.10;;;;;;;;;;10296539;28;20079;-64
2023/03/27 02:26:33;;;;;;;1.60;1.50;;;;;;;;;;10295080;28;20076;-65
2023/03/27 02:31:37;;;;;;;1.40;1.30;;;;;;;;;;10293431;28;20068;-65
2023/03/27 02:36:36;;;;;;;;;;;;;;;;;;10295950;28;20076;-65
2023/03/27 02:41:37;;;;;;;2.45;1.90;;;;;;;;;;10289438;28;19964;-65
2023/03/27 02:47:05;;;;;;;5.75;1.83;;;;;;;;;;10290928;28;20083;-64
2023/03/27 02:52:07;;;;;;;3.38;2.03;;;;;;;;;;10293458;28;20076;-64
2023/03/27 02:57:10;;;;;;;2.15;1.67;;;;;;;;;;10289459;28;20064;-64
2023/03/27 03:02:31;;;;;;;;;;;;;;;;;;10291107;28;20100;-65
2023/03/27 03:07:33;;;;;;;4.40;2.20;;;;;;;;;;10286307;28;19978;-65
2023/03/27 03:12:33;;;;;;;2.17;2.05;;;;;;;;;;10281486;28;20517;-65
2023/03/27 03:17:31;;;;;;;1.90;1.80;;;;;;;;;;10305849;28;20992;-64
2023/03/27 03:22:30;;;;;;;3.65;1.90;;;;;;;;;;10292588;28;20068;-65
2023/03/27 03:27:28;;;;;;;1.85;1.65;;;;;;;;;;10291282;28;20072;-64
2023/03/27 03:32:34;;;;;;;2.63;2.42;;;;;;;;;;10291818;28;20088;-64
2023/03/27 03:37:37;;;;;;;1.80;1.65;;;;;;;;;;10291920;28;20056;-65
2023/03/27 03:42:44;;;;;;;3.38;1.27;;;;;;;;;;10293244;28;20085;-65
2023/03/27 03:47:44;;;;;;;4.32;1.80;;;;;;;;;;10298473;28;20073;-65
2023/03/27 03:52:42;;;;;;;2.10;1.67;;;;;;;;;;10295211;28;20072;-66
2023/03/27 03:57:43;;;;;;;7.25;3.00;;;;;;;;;;10296414;28;20079;-66
2023/03/27 04:02:49;;;;;;;1.63;1.52;;;;;;;;;;10303177;28;20079;-66
2023/03/27 04:07:48;;;;;;;2.33;2.05;;;;;;;;;;10294097;28;20080;-65
2023/03/27 04:12:54;;;;;;;2.53;1.73;;;;;;;;;;10303549;28;20932;-64
2023/03/27 04:18:00;;;;;;;2.08;1.90;;;;;;;;;;10297018;28;20095;-64
2023/03/27 04:23:01;;;;;;;5.70;2.00;;;;;;;;;;10292777;28;20079;-64
2023/03/27 04:28:01;;;;;;;3.58;1.92;;;;;;;;;;10293835;28;20045;-65
2023/03/27 04:33:06;;;;;;;2.37;1.70;;;;;;;;;;10298701;28;20080;-63
2023/03/27 04:38:12;;;;;;;7.30;2.63;;;;;;;;;;10294998;28;20099;-64
2023/03/27 04:43:16;;;;;;;11.85;2.92;;;;;;;;;;10298697;28;20084;-62
2023/03/27 04:48:16;;;;;;;2.42;1.30;;;;;;;;;;10296885;28;20148;-65
2023/03/27 04:53:20;;;;;;;4.53;1.98;;;;;;;;;;10284129;28;20119;-64
2023/03/27 04:58:18;;;;;;;4.03;1.73;;;;;;;;;;10301096;28;20075;-64
2023/03/27 05:03:18;;;;;;;1.70;1.60;;;;;;;;;;10274692;28;20076;-64
2023/03/27 05:08:29;;;;;;;1.88;1.77;;;;;;;;;;10285726;28;20083;-64
2023/03/27 05:13:29;;;;;;;5.25;1.65;;;;;;;;;;10279887;28;20099;-64
2023/03/27 05:18:29;;;;;;;2.30;1.75;;;;;;;;;;10281326;28;20470;-65
2023/03/27 05:23:28;;;;;;;3.83;2.28;;;;;;;;;;10284920;28;20073;-63
2023/03/27 05:28:28;;;;;;;3.50;2.63;;;;;;;;;;10281108;28;20079;-63
2023/03/27 05:33:26;;;;;;;3.10;2.50;;;;;;;;;;10278763;28;20084;-64
2023/03/27 05:38:26;;;;;;;3.60;1.83;;;;;;;;;;10298705;28;20095;-64
2023/03/27 05:43:44;;;;;;;1.80;1.70;;;;;;;;;;10285860;28;20087;-64
2023/03/27 05:48:45;;;;;;;2.78;2.40;;;;;;;;;;10290794;28;20075;-63
2023/03/27 05:53:44;;;;;;;2.30;2.10;;;;;;;;;;10293652;28;20072;-63
2023/03/27 05:58:50;;;;;;;2.30;2.10;;;;;;;;;;10289503;28;20068;-64
2023/03/27 06:03:48;;;;;;;2.30;2.10;;;;;;;;;;10281409;28;20084;-64
2023/03/27 06:08:54;;;;;;;4.35;2.20;;;;;;;;;;10292420;28;20531;-64
2023/03/27 06:13:53;;;;;;;2.97;2.47;;;;;;;;;;10289735;28;20072;-63
2023/03/27 06:19:01;;;;;;;4.97;2.63;;;;;;;;;;10290772;28;20551;-63
2023/03/27 06:24:01;;;;;;;9.93;6.60;;;;;;;;;;10288214;28;20521;-63
2023/03/27 06:28:59;;;;;;;4.18;3.83;;;;;;;;;;10289442;28;20040;-64
2023/03/27 06:34:05;;;;;;;4.53;3.95;;;;;;;;;;10291692;28;20068;-64
2023/03/27 06:39:28;;;;;;;3.90;3.47;;;;;;;;;;10286108;28;20056;-64
2023/03/27 06:44:27;;;;;;;4.20;3.40;;;;;;;;;;10295609;28;20053;-65
2023/03/27 06:49:40;;;;;;;6.88;4.10;;;;;;;;;;10292452;28;20482;-64
2023/03/27 06:54:45;;;;;;;3.92;3.25;;;;;;;;;;10275623;28;20052;-63
2023/03/27 06:59:44;;;;;;;3.42;2.92;;;;;;;;;;10279134;28;20072;-63
2023/03/27 07:04:47;;;;;;;4.97;3.42;;;;;;;;;;10285188;28;20072;-65
2023/03/27 07:10:07;;;;;;;6.20;3.13;;;;;;;;;;10285308;28;20075;-64
2023/03/27 07:15:06;;;;;;;4.57;4.18;;;;;;;;;;10279224;28;20083;-65
2023/03/27 07:20:06;;;;;;;10.73;3.63;;;;;;;;;;10292996;28;20069;-64
2023/03/27 07:25:07;;;;;;;3.50;3.20;;;;;;;;;;10299674;28;20080;-64
2023/03/27 07:30:12;;;;;;;3.63;3.03;;;;;;;;;;10295992;28;20088;-65
2023/03/27 07:35:13;;;;;;;3.33;3.03;;;;;;;;;;10295465;28;20520;-65
2023/03/27 07:40:42;;;;;;;4.07;2.83;;;;;;;;;;10294865;28;20077;-65
2023/03/27 07:46:06;;;;;;;9.13;3.38;;;;;;;;;;10290322;28;20080;-64
2023/03/27 07:51:05;;;;;;;4.85;3.50;;;;;;;;;;10285012;28;20080;-65
2023/03/27 07:56:13;;;;;;;5.63;4.10;;;;;;;;;;10300196;28;20055;-65
2023/03/27 08:01:15;;;;;;;7.65;3.70;;;;;;;;;;10297059;28;20077;-64
2023/03/27 08:06:13;;;;;;;4.53;3.70;;;;;;;;;;10292367;28;20033;-65
2023/03/27 08:11:13;;;;;;;3.50;3.20;;;;;;;;;;10300578;28;20080;-65
2023/03/27 08:16:28;;;;;;;5.90;3.80;;;;;;;;;;10291311;28;20057;-64
2023/03/27 08:21:32;;;;;;;4.18;2.83;;;;;;;;;;10295724;28;20083;-63
2023/03/27 08:26:32;;;;;;;6.30;2.67;;;;;;;;;;10291100;28;20077;-65
2023/03/27 08:31:33;;;;;;;5.07;2.63;;;;;;;;;;10300387;28;20084;-64
2023/03/27 08:36:35;;;;;;;3.40;3.10;;;;;;;;;;10286546;28;20560;-64
2023/03/27 08:41:39;;;;;;;7.93;2.88;;;;;;;;;;10287548;28;20068;-64
2023/03/27 08:46:49;;;;;;;10.65;6.75;;;;;;;;;;10291371;28;20059;-65
2023/03/27 08:51:49;;;;;;;3.55;2.95;;;;;;;;;;10289950;28;20088;-65
2023/03/27 08:56:49;;;;;;;8.30;3.00;;;;;;;;;;10282266;28;20435;-65
2023/03/27 09:01:50;;;;;;;3.20;2.90;;;;;;;;;;10280613;28;20290;-65
2023/03/27 09:06:56;;;;;;;4.22;3.45;;;;;;;;;;10298689;28;20098;-64
2023/03/27 09:12:01;;;;;;;3.92;3.20;;;;;;;;;;10299044;28;20072;-64
2023/03/27 09:17:09;;;;;;;3.97;3.35;;;;;;;;;;10298147;28;20458;-67
2023/03/27 09:22:11;;;;;;;3.58;3.22;;;;;;;;;;10292221;28;20048;-67
2023/03/27 09:27:25;;;;;;;2.63;2.40;;;;;;;;;;10289049;28;20518;-66
2023/03/27 09:32:34;;;;;;;3.22;2.92;;;;;;;;;;10290952;28;20091;-68
2023/03/27 09:37:33;;;;;;;3.97;3.22;;;;;;;;;;10288783;28;20552;-66
2023/03/27 09:42:39;;;;;;;4.07;3.00;;;;;;;;;;10290047;28;20075;-67
2023/03/27 09:47:42;;;;;;;2.95;2.65;;;;;;;;;;10290811;28;20083;-67
2023/03/27 09:52:42;;;;;;;3.67;2.45;;;;;;;;;;10292117;28;20091;-67
2023/03/27 09:57:51;;;;;;;4.68;2.60;;;;;;;;;;10295146;28;20491;-68
2023/03/27 10:02:59;;;;;;;4.35;2.45;;;;;;;;;;10285835;28;20068;-66
2023/03/27 10:07:58;;;;;;;4.82;2.70;;;;;;;;;;10284613;28;20063;-67
2023/03/27 10:13:20;;;;;;;4.13;3.08;;;;;;;;;;10298397;28;20084;-67
2023/03/27 10:18:24;;;;;;;3.53;2.80;;;;;;;;;;10283318;28;20091;-67
2023/03/27 10:23:25;;;;;;;6.55;3.33;;;;;;;;;;10280396;28;20115;-66
2023/03/27 10:28:28;;;;;;;5.30;2.72;;;;;;;;;;10284424;28;20072;-66
2023/03/27 10:33:40;;;;;;;3.58;3.10;;;;;;;;;;10285408;28;20110;-65
2023/03/27 10:38:57;;;;;;;7.50;3.35;;;;;;;;;;10283405;28;20639;-66
2023/03/27 10:44:28;;;;;;;3.22;2.92;;;;;;;;;;10289820;28;20085;-66
2023/03/27 10:49:31;;;;;;;5.38;2.55;;;;;;;;;;10287490;28;20064;-65
2023/03/27 10:54:37;;;;;;;6.35;3.20;;;;;;;;;;10287316;28;20064;-67
2023/03/27 10:59:42;;;;;;;4.18;3.35;;;;;;;;;;10285281;28;20445;-66
2023/03/27 11:04:52;;;;;;;3.13;2.85;;;;;;;;;;10277818;28;20083;-67
2023/03/27 11:09:55;;;;;;;4.05;2.80;;;;;;;;;;10280661;28;20573;-67
2023/03/27 11:15:06;;;;;;;4.60;2.67;;;;;;;;;;10281691;28;20079;-65
2023/03/27 11:20:07;;;;;;;;;;;;;;;;;;10284388;28;20076;-66
2023/03/27 11:25:32;;;;;;;6.45;3.50;;;;;;;;;;10289118;28;19959;-66
2023/03/27 11:30:34;;;;;;;3.40;3.00;;;;;;;;;;10283871;28;20080;-65
2023/03/27 11:35:35;;;;;;;7.07;3.67;;;;;;;;;;10276824;28;20079;-65
2023/03/27 11:40:46;;;;;;;4.45;4.05;;;;;;;;;;10281780;28;20099;-65
2023/03/27 11:45:52;;;;;;;4.03;2.83;;;;;;;;;;10279678;28;20071;-65
2023/03/27 11:50:56;;;;;;;4.80;3.97;;;;;;;;;;10285692;28;20556;-66
2023/03/27 11:56:11;;;;;;;4.20;3.80;;;;;;;;;;10288740;28;20478;-66
2023/03/27 12:01:21;;;;;;;4.63;3.13;;;;;;;;;;10285843;28;20080;-66
2023/03/27 12:06:23;;;;;;;5.00;3.90;;;;;;;;;;10289555;28;20167;-65
2023/03/27 12:11:24;;;;;;;5.20;3.90;;;;;;;;;;10292091;28;20502;-64
2023/03/27 12:16:43;;;;;;;3.78;3.40;;;;;;;;;;10291519;28;20474;-66
2023/03/27 12:21:52;;;;;;;4.93;4.22;;;;;;;;;;10291844;28;20110;-65
2023/03/27 12:27:04;;;;;;;7.43;5.32;;;;;;;;;;10284926;28;20068;-65
2023/03/27 12:32:20;;;;;;;7.00;5.28;;;;;;;;;;10290428;28;20421;-66
2023/03/27 12:37:18;;;;;;;;;;;;;;;;;;10284803;28;20413;-65
2023/03/27 12:42:38;;;;;;;5.63;4.70;;;;;;;;;;10294556;28;19935;-65
2023/03/27 12:47:46;;;;;;;5.75;4.90;;;;;;;;;;10290749;28;20080;-65
2023/03/27 12:52:45;;;;;;;7.55;2.92;;;;;;;;;;10279630;28;20076;-65
2023/03/27 12:57:49;;;;;;;4.50;2.08;;;;;;;;;;10298776;28;20514;-65
2023/03/27 13:03:06;;;;;;;6.80;2.83;;;;;;;;;;10304844;28;20088;-65
2023/03/27 13:08:14;;;;;;;2.85;2.55;;;;;;;;;;10285500;28;20505;-64
2023/03/27 13:13:53;;;;;;;6.78;3.03;;;;;;;;;;10290040;28;20589;-65
2023/03/27 13:19:04;;;;;;;21.65;10.90;;;;;;;;;;10279098;28;20084;-65
2023/03/27 13:24:21;;;;;;;3.35;2.92;;;;;;;;;;10284775;28;20087;-65
2023/03/27 13:29:24;;;;;;;4.30;3.38;;;;;;;;;;10298310;28;20525;-66
2023/03/27 13:34:36;;;;;;;6.45;4.18;;;;;;;;;;10290310;28;20088;-65
2023/03/27 13:39:40;;;;;;;7.63;4.93;;;;;;;;;;10288076;28;20085;-65
2023/03/27 13:44:47;;;;;;;13.73;9.73;;;;;;;;;;10287552;28;20529;-64
2023/03/27 13:49:59;;;;;;;9.10;5.13;;;;;;;;;;10290151;28;20064;-65
2023/03/27 13:55:12;;;;;;;4.32;3.78;;;;;;;;;;10297700;28;20099;-64
2023/03/27 14:00:34;;;;;;;11.02;6.28;;;;;;;;;;10287413;28;20076;-64
2023/03/27 14:06:02;;;;;;;10.83;7.57;;;;;;;;;;10293174;28;20087;-67
2023/03/27 14:11:15;;;;;;;16.52;10.02;;;;;;;;;;10286770;28;20091;-67
2023/03/27 14:16:29;;;;;;;8.60;6.70;;;;;;;;;;10285821;28;20068;-66
2023/03/27 14:21:49;;;;;;;14.77;8.07;;;;;;;;;;10286382;28;20091;-66
2023/03/27 14:26:54;;;;;;;10.90;4.93;;;;;;;;;;10289308;28;20073;-65
2023/03/27 14:31:53;;;;;;;12.98;5.00;;;;;;;;;;10293979;28;20487;-66
2023/03/27 14:37:21;;;;;;;16.70;9.35;;;;;;;;;;10291092;28;20084;-66
2023/03/27 14:42:21;;;;;;;8.93;5.68;;;;;;;;;;10295666;28;20069;-67
2023/03/27 14:47:22;;;;;;;11.73;6.97;;;;;;;;;;10296196;28;20083;-66
2023/03/27 14:52:23;;;;;;;13.80;10.00;;;;;;;;;;10289733;28;20064;-66
2023/03/27 14:57:56;;;;;;;8.95;7.93;;;;;;;;;;10297526;28;20521;-66
2023/03/27 15:03:02;;;;;;;12.27;8.93;;;;;;;;;;10291908;28;20076;-64
2023/03/27 15:08:02;;;;;;;13.65;10.13;;;;;;;;;;10295369;28;20463;-67
2023/03/27 15:13:25;;;;;;;14.60;10.77;;;;;;;;;;10288834;28;20049;-65
2023/03/27 15:18:30;;;;;;;8.75;5.75;;;;;;;;;;10291708;28;20072;-66
2023/03/27 15:23:32;;;;;;;17.08;11.43;;;;;;;;;;10288344;28;20067;-66
2023/03/27 15:28:36;;;;;;;11.73;9.38;;;;;;;;;;10281278;28;20096;-67
2023/03/27 15:33:39;;;;;;;19.63;17.52;;;;;;;;;;10285876;28;20072;-66
2023/03/27 15:38:44;;;;;;;15.68;14.07;;;;;;;;;;10290962;28;20084;-67
2023/03/27 15:43:44;;;;;;;14.85;10.40;;;;;;;;;;10295317;28;20072;-65
2023/03/27 15:48:44;;;;;;;12.05;9.10;;;;;;;;;;10301441;28;20075;-66
2023/03/27 15:53:43;;;;;;;16.92;14.50;;;;;;;;;;10292052;28;20532;-66
2023/03/27 15:58:48;;;;;;;11.18;9.68;;;;;;;;;;10292811;28;20064;-66
2023/03/27 16:03:49;;;;;;;12.95;11.30;;;;;;;;;;10290406;28;20083;-66
2023/03/27 16:08:50;;;;;;;13.85;10.75;;;;;;;;;;10293079;28;20072;-66
2023/03/27 16:13:54;;;;;;;18.58;15.23;;;;;;;;;;10288230;28;20071;-67
2023/03/27 16:18:53;;;;;;;21.13;16.10;;;;;;;;;;10291036;28;20068;-65
2023/03/27 16:23:51;;;;;;;12.27;10.65;;;;;;;;;;10293225;28;20064;-65
2023/03/27 16:28:54;;;;;;;13.63;10.32;;;;;;;;;;10292558;28;20037;-66
2023/03/27 16:33:55;;;;;;;10.75;8.95;;;;;;;;;;10292359;28;20489;-67
2023/03/27 16:38:53;;;;;;;12.10;10.75;;;;;;;;;;10292080;28;20084;-66
2023/03/27 16:43:53;;;;;;;12.73;11.43;;;;;;;;;;10286243;28;20068;-65
2023/03/27 16:48:56;;;;;;;9.15;8.32;;;;;;;;;;10288332;28;20094;-66
2023/03/27 16:53:57;;;;;;;8.70;7.47;;;;;;;;;;10293525;28;20064;-66
2023/03/27 16:58:58;;;;;;;9.55;6.80;;;;;;;;;;10291897;28;20076;-66
2023/03/27 17:03:57;;;;;;;7.53;6.82;;;;;;;;;;10290240;28;20095;-67
2023/03/27 17:08:55;;;;;;;7.68;6.35;;;;;;;;;;10288199;28;20492;-66
2023/03/27 17:13:53;;;;;;;10.60;9.50;;;;;;;;;;10289293;28;20071;-66
2023/03/27 17:18:54;;;;;;;9.93;8.50;;;;;;;;;;10283344;28;20493;-65
2023/03/27 17:23:53;;;;;;;6.95;6.22;;;;;;;;;;10302296;28;20467;-66
2023/03/27 17:28:51;;;;;;;9.60;7.32;;;;;;;;;;10281718;28;20084;-66
2023/03/27 17:33:49;;;;;;;16.58;14.95;;;;;;;;;;10280911;28;20068;-65
2023/03/27 17:38:49;;;;;;;9.55;8.65;;;;;;;;;;10288550;28;20084;-66
2023/03/27 17:43:48;;;;;;;10.30;9.25;;;;;;;;;;10287207;28;20071;-67
2023/03/27 17:48:48;;;;;;;8.18;7.32;;;;;;;;;;10289076;28;20064;-65
2023/03/27 17:53:47;;;;;;;12.15;9.48;;;;;;;;;;10317386;28;20063;-66
2023/03/27 17:58:48;;;;;;;12.07;10.25;;;;;;;;;;10290605;28;20068;-65
2023/03/27 18:03:47;;;;;;;14.40;12.15;;;;;;;;;;10287172;28;20072;-66
2023/03/27 18:08:46;;;;;;;13.15;10.80;;;;;;;;;;10288599;28;20064;-65
2023/03/27 18:13:50;;;;;;;14.40;10.63;;;;;;;;;;10292311;28;20524;-65
2023/03/27 18:18:53;;;;;;;12.98;10.25;;;;;;;;;;10286645;28;20079;-66
2023/03/27 18:23:51;;;;;;;12.50;10.20;;;;;;;;;;10285124;28;20072;-66
2023/03/27 18:28:51;;;;;;;13.82;10.75;;;;;;;;;;10293286;28;20069;-65
2023/03/27 18:33:51;;;;;;;16.75;12.98;;;;;;;;;;10279849;28;20122;-66
2023/03/27 18:38:50;;;;;;;13.52;10.88;;;;;;;;;;10312663;28;20693;-66
2023/03/27 18:43:48;;;;;;;15.57;12.95;;;;;;;;;;10300200;28;20064;-66
2023/03/27 18:48:47;;;;;;;12.23;9.50;;;;;;;;;;10309523;28;20071;-65
2023/03/27 18:53:49;;;;;;;12.35;9.95;;;;;;;;;;10310313;28;20060;-65
2023/03/27 18:58:47;;;;;;;13.02;11.25;;;;;;;;;;10314120;28;20067;-66
2023/03/27 19:03:45;;;;;;;16.23;11.60;;;;;;;;;;10314244;28;20501;-65
2023/03/27 19:08:44;;;;;;;11.15;9.85;;;;;;;;;;10313312;28;20083;-65
2023/03/27 19:13:44;;;;;;;10.70;8.70;;;;;;;;;;10320047;28;20078;-66
2023/03/27 19:19:02;;;;;;;14.35;9.32;;;;;;;;;;10322117;28;20075;-66
2023/03/27 19:24:17;;;;;;;;;;;;;;;;;;10330969;28;20513;-65
2023/03/27 19:29:18;;;;;;;11.13;9.95;;;;;;;;;;10321264;28;19932;-65
2023/03/27 19:34:16;;;;;;;9.68;8.45;;;;;;;;;;10324496;28;20044;-65
2023/03/27 19:39:14;;;;;;;10.43;9.20;;;;;;;;;;10321864;28;20556;-66
2023/03/27 19:44:14;;;;;;;15.30;12.25;;;;;;;;;;10321433;28;20075;-65
2023/03/27 19:49:15;;;;;;;17.08;14.13;;;;;;;;;;10319867;28;20060;-65
2023/03/27 19:54:19;;;;;;;14.35;12.10;;;;;;;;;;10320407;28;20056;-65
2023/03/27 19:59:17;;;;;;;12.43;9.25;;;;;;;;;;10308821;28;20513;-66
2023/03/27 20:04:29;;;;;;;13.18;10.13;;;;;;;;;;10308552;28;20517;-65
2023/03/27 20:09:29;;;;;;;12.45;9.90;;;;;;;;;;10306159;28;20163;-65
2023/03/27 20:14:27;;;;;;;11.20;8.75;;;;;;;;;;10306392;28;20563;-65
2023/03/27 20:19:29;;;;;;;10.15;8.82;;;;;;;;;;10313969;28;20067;-66
2023/03/27 20:24:31;;;;;;;9.20;7.80;;;;;;;;;;10319417;28;20097;-65
2023/03/27 20:29:31;;;;;;;10.45;7.97;;;;;;;;;;10317583;28;20079;-65
2023/03/27 20:34:29;;;;;;;14.68;9.98;;;;;;;;;;10318579;28;20087;-66
2023/03/27 20:39:27;;;;;;;11.65;8.40;;;;;;;;;;10311505;28;20639;-66
2023/03/27 20:44:34;;;;;;;9.18;7.40;;;;;;;;;;10318198;28;20072;-65
2023/03/27 20:49:32;;;;;;;6.75;6.05;;;;;;;;;;10318282;28;20060;-65
2023/03/27 20:54:38;;;;;;;7.88;6.43;;;;;;;;;;10318448;28;20083;-65
2023/03/27 20:59:42;;;;;;;6.75;6.05;;;;;;;;;;10316730;28;20098;-65
2023/03/27 21:04:45;;;;;;;7.35;6.43;;;;;;;;;;10317970;28;20167;-65
2023/03/27 21:09:43;;;;;;;7.18;6.47;;;;;;;;;;10317830;28;20048;-65
2023/03/27 21:14:43;;;;;;;5.05;4.53;;;;;;;;;;10323781;28;20064;-65
2023/03/27 21:19:42;;;;;;;6.15;5.43;;;;;;;;;;10315292;28;20083;-66
2023/03/27 21:24:40;;;;;;;6.85;6.15;;;;;;;;;;10315552;28;20253;-65
2023/03/27 21:29:38;;;;;;;6.25;5.18;;;;;;;;;;10316724;28;20079;-66
2023/03/27 21:34:38;;;;;;;5.20;4.75;;;;;;;;;;10316408;28;20067;-65
2023/03/27 21:39:36;;;;;;;8.43;6.68;;;;;;;;;;10316121;28;20075;-65
2023/03/27 21:44:34;;;;;;;5.80;5.20;;;;;;;;;;10316241;28;20064;-65
2023/03/27 21:49:32;;;;;;;6.18;5.50;;;;;;;;;;10312935;28;20064;-65
2023/03/27 21:54:32;;;;;;;5.70;5.10;;;;;;;;;;10315974;28;20458;-65
2023/03/27 21:59:30;;;;;;;13.48;9.93;;;;;;;;;;10315753;28;20075;-65
2023/03/27 22:04:29;;;;;;;9.77;7.88;;;;;;;;;;10315228;28;20068;-65
2023/03/27 22:09:27;;;;;;;20.73;15.20;;;;;;;;;;10315502;28;20079;-66
2023/03/27 22:14:27;;;;;;;7.47;5.40;;;;;;;;;;10315273;28;20064;-65
2023/03/27 22:19:25;;;;;;;4.95;4.45;;;;;;;;;;10314741;28;20066;-66
2023/03/27 22:24:24;;;;;;;6.72;5.93;;;;;;;;;;10314517;28;20056;-65
2023/03/27 22:29:22;;;;;;;7.22;6.13;;;;;;;;;;10314866;28;20076;-65
2023/03/27 22:34:22;;;;;;;7.72;6.20;;;;;;;;;;10314124;28;20064;-66
2023/03/27 22:39:20;;;;;;;5.28;4.78;;;;;;;;;;10313799;28;20517;-65
2023/03/27 22:44:18;;;;;;;8.75;6.18;;;;;;;;;;10314151;28;20060;-65
2023/03/27 22:49:16;;;;;;;11.85;8.88;;;;;;;;;;10313660;28;20079;-65
2023/03/27 22:54:17;;;;;;;8.32;7.53;;;;;;;;;;10313882;28;20060;-65
2023/03/27 22:59:16;;;;;;;8.63;6.65;;;;;;;;;;10314038;28;20076;-65
2023/03/27 23:04:14;;;;;;;8.27;6.80;;;;;;;;;;10313990;28;20473;-65
2023/03/27 23:09:12;;;;;;;8.85;5.82;;;;;;;;;;10314094;28;20072;-65
2023/03/27 23:14:12;;;;;;;9.35;7.47;;;;;;;;;;10309536;28;20060;-65
2023/03/27 23:19:10;;;;;;;12.18;9.98;;;;;;;;;;10313555;28;20079;-65
2023/03/27 23:24:09;;;;;;;10.05;8.32;;;;;;;;;;10313533;28;20441;-65
2023/03/27 23:29:08;;;;;;;19.52;13.00;;;;;;;;;;10310824;28;20056;-65
2023/03/27 23:34:07;;;;;;;11.40;8.50;;;;;;;;;;10303839;28;20083;-65
2023/03/27 23:39:05;;;;;;;11.40;8.93;;;;;;;;;;10316551;28;20060;-68
2023/03/27 23:44:04;;;;;;;9.35;7.57;;;;;;;;;;10313366;28;20075;-65
2023/03/27 23:49:02;;;;;;;9.98;6.57;;;;;;;;;;10313343;28;20076;-65
2023/03/27 23:54:01;;;;;;;4.88;4.43;;;;;;;;;;10312734;28;20095;-65
2023/03/27 23:59:00;;;;;;;6.97;5.95;;;;;;;;;;10317207;28;20087;-66
